createdAt,value
2022-07-28T00:00:33.883Z,96586.41
2022-07-28T00:03:02.092Z,96593.06
2022-07-28T00:05:30.514Z,96592.81
2022-07-28T00:07:59.176Z,96595.22
2022-07-28T00:10:27.443Z,96587.19
2022-07-28T00:12:55.717Z,96590.41
2022-07-28T00:15:25.209Z,96588.28
2022-07-28T00:17:53.934Z,96575.50
2022-07-28T00:20:22.273Z,96569.09
2022-07-28T00:22:50.442Z,96572.28
2022-07-28T00:25:18.622Z,96567.44
2022-07-28T00:27:46.803Z,96570.38
2022-07-28T00:30:15.204Z,96570.13
2022-07-28T00:32:44.808Z,96570.13
2022-07-28T00:35:13.131Z,96573.09
2022-07-28T00:37:43.143Z,96568.78
2022-07-28T00:40:13.010Z,96570.38
2022-07-28T00:42:41.145Z,96561.03
2022-07-28T00:45:10.770Z,96558.63
2022-07-28T00:47:38.985Z,96560.50
2022-07-28T00:50:09.463Z,96565.03
2022-07-28T00:52:37.871Z,96557.84
2022-07-28T00:55:07.282Z,96564.78
2022-07-28T00:57:35.717Z,96555.72
2022-07-28T01:00:05.247Z,96552.78
2022-07-28T01:02:33.457Z,96558.13
2022-07-28T01:05:01.648Z,96546.63
2022-07-28T01:07:39.977Z,96550.38
2022-07-28T01:10:13.700Z,96554.38
2022-07-28T01:12:59.612Z,96548.50
2022-07-28T01:15:41.987Z,96546.38
2022-07-28T01:18:16.948Z,96549.31
2022-07-28T01:20:48.460Z,96545.31
2022-07-28T01:23:44.082Z,96549.34
2022-07-28T01:26:35.332Z,96550.41
2022-07-28T01:29:17.159Z,96547.47
2022-07-28T01:31:55.063Z,96539.47
2022-07-28T01:34:31.678Z,96541.88
2022-07-28T01:37:06.806Z,96534.66
2022-07-28T01:39:38.596Z,96535.72
2022-07-28T01:42:09.637Z,96534.66
2022-07-28T01:44:42.775Z,96531.44
2022-07-28T01:47:13.133Z,96532.00
2022-07-28T01:49:45.054Z,96537.34
2022-07-28T01:52:14.676Z,96534.66
2022-07-28T01:54:46.569Z,96523.19
2022-07-28T01:57:18.660Z,96530.09
2022-07-28T01:59:48.210Z,96514.06
2022-07-28T02:02:23.477Z,96516.25
2022-07-28T02:04:53.156Z,96520.47
2022-07-28T02:07:23.412Z,96514.59
2022-07-28T02:09:51.982Z,96520.47
2022-07-28T02:12:21.079Z,96518.88
2022-07-28T02:14:51.872Z,96511.94
2022-07-28T02:17:26.223Z,96501.78
2022-07-28T02:19:54.930Z,96502.84
2022-07-28T02:22:23.722Z,96503.66
2022-07-28T02:24:54.195Z,96503.66
2022-07-28T02:27:25.626Z,96503.38
2022-07-28T02:30:04.660Z,96502.59
2022-07-28T02:32:41.660Z,96500.19
2022-07-28T02:35:19.939Z,96506.59
2022-07-28T02:38:05.513Z,96502.28
2022-07-28T02:40:38.204Z,96509.78
2022-07-28T02:43:11.501Z,96504.44
2022-07-28T02:45:43.872Z,96509.22
2022-07-28T02:48:18.477Z,96497.75
2022-07-28T02:50:47.895Z,96492.41
2022-07-28T02:53:17.740Z,96496.66
2022-07-28T02:55:48.725Z,96502.28
2022-07-28T02:58:19.425Z,96494.81
2022-07-28T03:00:48.491Z,96498.28
2022-07-28T03:03:19.644Z,96495.06
2022-07-28T03:05:48.673Z,96497.47
2022-07-28T03:08:18.061Z,96491.88
2022-07-28T03:10:46.654Z,96488.41
2022-07-28T03:13:14.803Z,96486.81
2022-07-28T03:15:42.856Z,96485.75
2022-07-28T03:18:10.929Z,96491.06
2022-07-28T03:20:40.418Z,96489.75
2022-07-28T03:23:10.590Z,96494.00
2022-07-28T03:25:47.485Z,96500.16
2022-07-28T03:28:20.905Z,96498.53
2022-07-28T03:30:56.827Z,96495.84
2022-07-28T03:33:25.596Z,96491.56
2022-07-28T03:35:59.019Z,96499.03
2022-07-28T03:38:34.760Z,96497.38
2022-07-28T03:41:03.775Z,96501.63
2022-07-28T03:43:34.539Z,96503.22
2022-07-28T03:46:02.777Z,96501.34
2022-07-28T03:48:31.366Z,96503.22
2022-07-28T03:51:00.750Z,96505.63
2022-07-28T03:53:30.659Z,96509.06
2022-07-28T03:55:59.110Z,96509.56
2022-07-28T03:58:29.288Z,96506.91
2022-07-28T04:00:57.731Z,96508.50
2022-07-28T04:03:42.726Z,96521.03
2022-07-28T04:06:15.045Z,96520.22
2022-07-28T04:08:44.662Z,96518.88
2022-07-28T04:11:13.584Z,96509.78
2022-07-28T04:13:41.668Z,96516.44
2022-07-28T04:16:09.834Z,96514.81
2022-07-28T04:18:38.072Z,96516.09
2022-07-28T04:21:07.762Z,96515.28
2022-07-28T04:23:37.128Z,96518.53
2022-07-28T04:26:05.413Z,96513.44
2022-07-28T04:28:33.416Z,96514.22
2022-07-28T04:31:01.539Z,96511.88
2022-07-28T04:33:30.498Z,96511.31
2022-07-28T04:36:00.723Z,96515.38
2022-07-28T04:38:28.971Z,96512.72
2022-07-28T04:40:58.487Z,96513.78
2022-07-28T04:43:26.624Z,96506.88
2022-07-28T04:45:54.820Z,96510.06
2022-07-28T04:48:23.978Z,96507.94
2022-07-28T04:50:52.716Z,96497.56
2022-07-28T04:53:24.123Z,96503.72
2022-07-28T04:55:54.560Z,96501.56
2022-07-28T04:58:26.960Z,96506.94
2022-07-28T05:00:59.011Z,96507.47
2022-07-28T05:03:27.167Z,96505.59
2022-07-28T05:05:55.451Z,96504.78
2022-07-28T05:08:26.164Z,96507.22
2022-07-28T05:10:56.733Z,96503.50
2022-07-28T05:13:31.809Z,96507.50
2022-07-28T05:16:01.578Z,96513.09
2022-07-28T05:18:29.772Z,96503.78
2022-07-28T05:20:57.807Z,96508.03
2022-07-28T05:23:25.876Z,96513.97
2022-07-28T05:25:54.448Z,96513.41
2022-07-28T05:28:22.478Z,96515.56
2022-07-28T05:30:51.933Z,96511.31
2022-07-28T05:33:19.948Z,96506.22
2022-07-28T05:35:54.625Z,96505.19
2022-07-28T05:38:22.783Z,96504.63
2022-07-28T05:40:51.008Z,96509.19
2022-07-28T05:43:19.190Z,96511.09
2022-07-28T05:45:47.576Z,96510.00
2022-07-28T05:48:18.355Z,96511.38
2022-07-28T05:50:47.233Z,96509.53
2022-07-28T05:53:15.862Z,96513.53
2022-07-28T05:56:00.382Z,96514.59
2022-07-28T05:58:30.732Z,96507.66
2022-07-28T06:01:01.921Z,96513.53
2022-07-28T06:03:39.756Z,96517.28
2022-07-28T06:06:16.002Z,96514.88
2022-07-28T06:08:47.177Z,96510.31
2022-07-28T06:11:22.836Z,96511.13
2022-07-28T06:13:52.844Z,96503.16
2022-07-28T06:16:23.205Z,96498.34
2022-07-28T06:18:53.891Z,96498.63
2022-07-28T06:21:24.217Z,96501.81
2022-07-28T06:23:52.348Z,96506.59
2022-07-28T06:26:23.554Z,96497.50
2022-07-28T06:28:52.186Z,96504.47
2022-07-28T06:31:20.355Z,96501.78
2022-07-28T06:33:48.446Z,96508.44
2022-07-28T06:36:17.844Z,96501.47
2022-07-28T06:38:45.996Z,96507.59
2022-07-28T06:41:14.101Z,96499.84
2022-07-28T06:43:42.141Z,96503.88
2022-07-28T06:46:10.204Z,96504.94
2022-07-28T06:48:39.363Z,96496.63
2022-07-28T06:51:07.715Z,96504.38
2022-07-28T06:53:37.153Z,96496.38
2022-07-28T06:56:06.671Z,96496.06
2022-07-28T06:58:35.793Z,96493.94
2022-07-28T07:01:07.619Z,96495.53
2022-07-28T07:03:36.113Z,96502.19
2022-07-28T07:06:04.555Z,96501.25
2022-07-28T07:08:32.858Z,96499.28
2022-07-28T07:11:02.417Z,96496.38
2022-07-28T07:13:30.491Z,96493.94
2022-07-28T07:15:58.632Z,96489.34
2022-07-28T07:18:26.932Z,96491.75
2022-07-28T07:20:58.639Z,96497.94
2022-07-28T07:23:26.836Z,96490.88
2022-07-28T07:25:55.076Z,96492.50
2022-07-28T07:28:24.531Z,96497.88
2022-07-28T07:30:52.637Z,96492.47
2022-07-28T07:33:20.810Z,96499.63
2022-07-28T07:35:48.841Z,96489.66
2022-07-28T07:38:16.911Z,96487.00
2022-07-28T07:40:45.112Z,96493.59
2022-07-28T07:43:13.818Z,96487.72
2022-07-28T07:45:43.299Z,96487.50
2022-07-28T07:48:12.586Z,96488.03
2022-07-28T07:50:40.723Z,96488.81
2022-07-28T07:53:08.821Z,96476.94
2022-07-28T07:55:37.850Z,96480.94
2022-07-28T07:58:06.632Z,96480.69
2022-07-28T08:00:35.782Z,96488.50
2022-07-28T08:03:11.191Z,96485.41
2022-07-28T08:05:40.417Z,96480.34
2022-07-28T08:08:09.507Z,96479.59
2022-07-28T08:10:40.487Z,96481.22
2022-07-28T08:13:09.934Z,96486.31
2022-07-28T08:15:37.991Z,96478.53
2022-07-28T08:18:07.511Z,96475.28
2022-07-28T08:20:35.564Z,96481.72
2022-07-28T08:23:03.703Z,96479.91
2022-07-28T08:25:31.780Z,96480.44
2022-07-28T08:27:59.857Z,96477.88
2022-07-28T08:30:32.427Z,96484.50
2022-07-28T08:33:02.718Z,96479.31
2022-07-28T08:35:35.149Z,96485.91
2022-07-28T08:38:05.347Z,96475.66
2022-07-28T08:40:33.777Z,96481.47
2022-07-28T08:43:53.482Z,96480.81
2022-07-28T08:46:25.624Z,96480.22
2022-07-28T08:48:54.100Z,96480.31
2022-07-28T08:51:28.408Z,96479.44
2022-07-28T08:53:58.531Z,96476.75
2022-07-28T08:56:28.057Z,96479.00
2022-07-28T08:58:56.924Z,96478.75
2022-07-28T09:01:25.694Z,96479.50
2022-07-28T09:04:08.992Z,96466.69
2022-07-28T09:06:41.994Z,96475.19
2022-07-28T09:09:10.913Z,96471.50
2022-07-28T09:11:39.948Z,96470.50
2022-07-28T09:14:08.144Z,96466.94
2022-07-28T09:16:36.212Z,96468.56
2022-07-28T09:19:04.613Z,96473.22
2022-07-28T09:21:33.307Z,96469.53
2022-07-28T09:24:02.714Z,96467.25
2022-07-28T09:26:30.756Z,96463.94
2022-07-28T09:29:02.312Z,96463.59
2022-07-28T09:31:31.254Z,96464.19
2022-07-28T09:34:02.377Z,96459.34
2022-07-28T09:36:37.659Z,96461.75
2022-07-28T09:39:07.382Z,96460.53
2022-07-28T09:41:48.938Z,96456.25
2022-07-28T09:44:20.386Z,96461.31
2022-07-28T09:46:48.840Z,96451.97
2022-07-28T09:49:17.442Z,96451.19
2022-07-28T09:52:01.459Z,96445.50
2022-07-28T09:54:30.913Z,96449.16
2022-07-28T09:56:59.086Z,96443.66
2022-07-28T09:59:27.583Z,96442.91
2022-07-28T10:02:00.996Z,96437.91
2022-07-28T10:04:32.622Z,96436.41
2022-07-28T10:07:06.500Z,96439.00
2022-07-28T10:09:36.515Z,96436.94
2022-07-28T10:12:19.708Z,96436.13
2022-07-28T10:14:48.226Z,96424.81
2022-07-28T10:17:31.901Z,96427.22
2022-07-28T10:20:01.375Z,96425.69
2022-07-28T10:22:33.320Z,96425.47
2022-07-28T10:25:09.657Z,96426.13
2022-07-28T10:27:41.361Z,96421.97
2022-07-28T10:30:11.703Z,96419.63
2022-07-28T10:32:43.223Z,96412.94
2022-07-28T10:35:13.752Z,96404.88
2022-07-28T10:37:52.327Z,96406.56
2022-07-28T10:40:27.401Z,96417.44
2022-07-28T10:42:56.306Z,96410.28
2022-07-28T10:45:42.023Z,96410.63
2022-07-28T10:48:13.942Z,96408.91
2022-07-28T10:50:42.452Z,96407.63
2022-07-28T10:53:20.364Z,96412.91
2022-07-28T10:55:55.901Z,96412.22
2022-07-28T10:58:40.051Z,96405.09
2022-07-28T11:01:17.077Z,96408.44
2022-07-28T11:03:54.935Z,96410.69
2022-07-28T11:06:34.657Z,96404.16
2022-07-28T11:09:32.847Z,96407.19
2022-07-28T11:12:02.673Z,96404.59
2022-07-28T11:14:39.559Z,96400.00
2022-07-28T11:17:24.417Z,96400.47
2022-07-28T11:20:27.164Z,96390.13
2022-07-28T11:22:51.618Z,96393.13
2022-07-28T11:25:22.311Z,96390.88
2022-07-28T11:28:05.995Z,96390.88
2022-07-28T11:30:55.202Z,96393.78
2022-07-28T11:33:24.767Z,96393.16
2022-07-28T11:35:58.914Z,96389.31
2022-07-28T11:38:28.312Z,96387.41
2022-07-28T11:40:57.604Z,96390.75
2022-07-28T11:43:41.039Z,96388.72
2022-07-28T11:46:36.080Z,96384.56
2022-07-28T11:49:21.780Z,96382.81
2022-07-28T11:52:23.101Z,96380.09
2022-07-28T11:54:57.161Z,96371.22
2022-07-28T11:57:29.406Z,96374.25
2022-07-28T12:00:07.074Z,96372.81
2022-07-28T12:02:37.177Z,96366.75
2022-07-28T12:05:12.589Z,96377.41
2022-07-28T12:07:48.500Z,96367.25
2022-07-28T12:10:53.969Z,96368.03
2022-07-28T12:13:29.954Z,96374.06
2022-07-28T12:15:59.431Z,96374.06
2022-07-28T12:18:27.555Z,96371.69
2022-07-28T12:20:56.022Z,96367.91
2022-07-28T12:23:38.664Z,96360.59
2022-07-28T12:26:13.844Z,96356.59
2022-07-28T12:28:51.505Z,96353.06
2022-07-28T12:31:25.796Z,96346.50
2022-07-28T12:33:54.471Z,96337.25
2022-07-28T12:36:24.176Z,96342.50
2022-07-28T12:38:53.524Z,96353.16
2022-07-28T12:41:21.802Z,96355.38
2022-07-28T12:43:55.188Z,96351.44
2022-07-28T12:46:28.621Z,96344.94
2022-07-28T12:48:59.167Z,96336.94
2022-07-28T12:51:36.249Z,96344.09
2022-07-28T12:54:07.349Z,96345.28
2022-07-28T12:56:47.003Z,96338.41
2022-07-28T12:59:16.079Z,96331.69
2022-07-28T13:01:54.533Z,96327.59
2022-07-28T13:04:45.325Z,96332.50
2022-07-28T13:07:15.646Z,96328.56
2022-07-28T13:10:00.291Z,96323.34
2022-07-28T13:12:30.798Z,96326.66
2022-07-28T13:15:00.787Z,96323.66
2022-07-28T13:17:49.317Z,96324.78
2022-07-28T13:20:18.045Z,96329.19
2022-07-28T13:22:46.652Z,96323.47
2022-07-28T13:25:15.605Z,96317.13
2022-07-28T13:27:43.977Z,96314.72
2022-07-28T13:30:13.164Z,96315.66
2022-07-28T13:32:42.711Z,96298.41
2022-07-28T13:35:14.934Z,96311.63
2022-07-28T13:37:44.058Z,96307.34
2022-07-28T13:40:13.546Z,96294.78
2022-07-28T13:42:52.951Z,96295.25
2022-07-28T13:45:24.734Z,96302.25
2022-07-28T13:47:59.562Z,96295.59
2022-07-28T13:50:27.879Z,96293.50
2022-07-28T13:52:56.123Z,96290.78
2022-07-28T13:55:24.664Z,96294.47
2022-07-28T13:57:56.559Z,96293.97
2022-07-28T14:00:25.292Z,96292.38
2022-07-28T14:02:53.441Z,96283.75
2022-07-28T14:05:23.065Z,96289.13
2022-07-28T14:07:51.619Z,96281.25
2022-07-28T14:10:19.760Z,96276.69
2022-07-28T14:12:47.801Z,96273.41
2022-07-28T14:15:16.230Z,96266.69
2022-07-28T14:17:45.957Z,96262.75
2022-07-28T14:20:15.678Z,96264.66
2022-07-28T14:22:46.861Z,96260.63
2022-07-28T14:25:20.684Z,96265.53
2022-07-28T14:27:50.649Z,96249.59
2022-07-28T14:30:19.730Z,96257.75
2022-07-28T14:32:47.961Z,96255.50
2022-07-28T14:40:59.765Z,96243.06
2022-07-28T14:43:27.816Z,96254.78
2022-07-28T14:46:12.522Z,96247.00
2022-07-28T14:48:43.106Z,96254.25
2022-07-28T14:51:12.699Z,96256.97
2022-07-28T14:53:51.537Z,96261.72
2022-07-28T14:56:20.386Z,96256.47
2022-07-28T14:58:48.480Z,96257.28
2022-07-28T15:01:16.533Z,96250.09
2022-07-28T15:03:44.656Z,96259.34
2022-07-28T15:06:12.759Z,96250.63
2022-07-28T15:08:40.799Z,96244.56
2022-07-28T15:11:10.368Z,96249.78
2022-07-28T15:13:38.423Z,96246.59
2022-07-28T15:16:07.432Z,96239.94
2022-07-28T15:18:35.817Z,96244.38
2022-07-28T15:21:04.533Z,96240.22
2022-07-28T15:23:32.603Z,96235.44
2022-07-28T15:26:00.734Z,96233.28
2022-07-28T15:28:33.486Z,96239.97
2022-07-28T15:31:01.668Z,96234.34
2022-07-28T15:33:29.863Z,96229.59
2022-07-28T15:36:00.753Z,96230.50
2022-07-28T15:38:31.630Z,96234.34
2022-07-28T15:41:00.410Z,96232.41
2022-07-28T15:43:28.887Z,96235.41
2022-07-28T15:45:58.608Z,96236.97
2022-07-28T15:48:26.686Z,96241.25
2022-07-28T15:50:54.720Z,96232.38
2022-07-28T15:53:22.764Z,96226.41
2022-07-28T15:55:51.877Z,96219.09
2022-07-28T15:58:20.481Z,96215.63
2022-07-28T16:00:49.035Z,96218.31
2022-07-28T16:03:18.479Z,96209.47
2022-07-28T16:05:49.780Z,96215.25
2022-07-28T16:08:22.410Z,96221.53
2022-07-28T16:10:53.103Z,96218.84
2022-07-28T16:13:36.190Z,96206.13
2022-07-28T16:16:08.213Z,96215.97
2022-07-28T16:18:40.101Z,96216.13
2022-07-28T16:21:09.932Z,96212.69
2022-07-28T16:23:38.147Z,96211.59
2022-07-28T16:26:09.033Z,96210.34
2022-07-28T16:28:37.340Z,96208.38
2022-07-28T16:31:05.769Z,96207.41
2022-07-28T16:33:34.115Z,96199.44
2022-07-28T16:36:04.032Z,96195.19
2022-07-28T16:38:32.091Z,96201.03
2022-07-28T16:41:00.163Z,96197.25
2022-07-28T16:43:28.223Z,96198.81
2022-07-28T16:45:56.353Z,96192.19
2022-07-28T16:48:24.468Z,96198.13
2022-07-28T16:50:52.559Z,96202.88
2022-07-28T16:53:22.131Z,96198.91
2022-07-28T16:55:50.285Z,96197.31
2022-07-28T16:58:19.941Z,96195.28
2022-07-28T17:00:48.005Z,96192.56
2022-07-28T17:03:16.936Z,96192.28
2022-07-28T17:05:45.469Z,96191.47
2022-07-28T17:08:13.598Z,96195.13
2022-07-28T17:10:43.033Z,96195.63
2022-07-28T17:13:11.995Z,96196.13
2022-07-28T17:15:41.425Z,96204.03
2022-07-28T17:18:09.585Z,96196.75
2022-07-28T17:20:41.913Z,96198.03
2022-07-28T17:23:10.369Z,96194.88
2022-07-28T17:28:28.438Z,96198.56
2022-07-28T17:30:56.704Z,96209.06
2022-07-28T17:33:25.119Z,96213.53
2022-07-28T17:35:55.055Z,96224.97
2022-07-28T17:38:29.493Z,96222.59
2022-07-28T17:41:03.768Z,96226.56
2022-07-28T17:43:33.333Z,96228.63
2022-07-28T17:46:01.600Z,96235.00
2022-07-28T17:48:31.050Z,96234.53
2022-07-28T17:50:59.319Z,96231.84
2022-07-28T17:53:27.531Z,96241.81
2022-07-28T17:56:01.183Z,96232.78
2022-07-28T17:58:32.192Z,96236.75
2022-07-28T18:01:09.697Z,96234.22
2022-07-28T18:03:58.866Z,96233.91
2022-07-28T18:06:32.107Z,96232.78
2022-07-28T18:09:05.770Z,96234.41
2022-07-28T18:11:55.663Z,96234.56
2022-07-28T18:14:25.418Z,96231.72
2022-07-28T18:16:55.190Z,96230.31
2022-07-28T18:19:23.255Z,96225.84
2022-07-28T18:21:51.531Z,96227.56
2022-07-28T18:24:22.214Z,96223.16
2022-07-28T18:26:51.027Z,96221.53
2022-07-28T18:29:20.307Z,96220.28
2022-07-28T18:31:52.029Z,96225.22
2022-07-28T18:34:24.654Z,96230.75
2022-07-28T18:36:53.622Z,96226.47
2022-07-28T18:39:22.183Z,96229.50
2022-07-28T18:41:50.201Z,96232.66
2022-07-28T18:44:19.513Z,96226.94
2022-07-28T18:46:48.360Z,96236.50
2022-07-28T18:49:16.677Z,96229.34
2022-07-28T18:51:46.157Z,96222.34
2022-07-28T18:54:18.506Z,96223.47
2022-07-28T18:56:48.335Z,96234.25
2022-07-28T18:59:16.587Z,96239.03
2022-07-28T19:01:44.888Z,96246.34
2022-07-28T19:04:13.445Z,96257.75
2022-07-28T19:06:42.380Z,96252.81
2022-07-28T19:09:11.854Z,96253.00
2022-07-28T19:11:45.368Z,96249.03
2022-07-28T19:14:14.497Z,96259.78
2022-07-28T19:16:42.829Z,96260.28
2022-07-28T19:19:11.040Z,96259.34
2022-07-28T19:21:43.545Z,96264.09
2022-07-28T19:24:14.862Z,96260.75
2022-07-28T19:26:45.562Z,96261.84
2022-07-28T19:29:14.210Z,96262.81
2022-07-28T19:31:42.389Z,96274.06
2022-07-28T19:34:10.940Z,96271.56
2022-07-28T19:36:40.330Z,96280.91
2022-07-28T19:39:08.982Z,96283.94
2022-07-28T19:41:38.447Z,96291.34
2022-07-28T19:44:06.649Z,96290.25
2022-07-28T19:46:34.759Z,96298.00
2022-07-28T19:49:03.149Z,96299.09
2022-07-28T19:51:31.325Z,96302.13
2022-07-28T19:54:00.325Z,96311.00
2022-07-28T19:56:31.586Z,96315.28
2022-07-28T19:59:01.415Z,96319.09
2022-07-28T20:01:33.628Z,96323.50
2022-07-28T20:04:05.158Z,96323.94
2022-07-28T20:06:34.289Z,96326.00
2022-07-28T20:09:03.575Z,96329.63
2022-07-28T20:11:32.762Z,96342.94
2022-07-28T20:14:02.589Z,96364.81
2022-07-28T20:16:31.450Z,96379.03
2022-07-28T20:18:59.704Z,96398.13
2022-07-28T20:21:27.936Z,96415.03
2022-07-28T20:23:57.798Z,96420.06
2022-07-28T20:26:27.015Z,96440.66
2022-07-28T20:28:56.255Z,96442.66
2022-07-28T20:31:25.973Z,96447.25
2022-07-28T20:33:54.138Z,96447.38
2022-07-28T20:36:25.071Z,96445.22
2022-07-28T20:38:57.433Z,96454.00
2022-07-28T20:41:25.587Z,96459.31
2022-07-28T20:44:18.507Z,96448.97
2022-07-28T20:46:43.568Z,96455.75
2022-07-28T20:49:11.679Z,96463.34
2022-07-28T20:51:40.167Z,96460.66
2022-07-28T20:54:19.045Z,96459.19
2022-07-28T20:56:47.237Z,96462.66
2022-07-28T20:59:15.677Z,96453.78
2022-07-28T21:01:45.159Z,96456.41
2022-07-28T21:04:13.724Z,96440.75
2022-07-28T21:06:50.925Z,96438.72
2022-07-28T21:09:20.832Z,96430.03
2022-07-28T21:11:48.905Z,96436.25
2022-07-28T21:14:17.254Z,96435.84
2022-07-28T21:16:46.990Z,96439.13
2022-07-28T21:19:15.091Z,96440.53
2022-07-28T21:21:43.189Z,96444.75
2022-07-28T21:24:11.270Z,96448.44
2022-07-28T21:26:41.609Z,96448.31
2022-07-28T21:29:12.296Z,96457.59
2022-07-28T21:32:02.354Z,96455.50
2022-07-28T21:34:33.919Z,96465.25
2022-07-28T21:37:03.169Z,96461.00
2022-07-28T21:39:31.516Z,96470.75
2022-07-28T21:41:59.897Z,96478.31
2022-07-28T21:44:28.099Z,96478.69
2022-07-28T21:46:56.142Z,96479.69
2022-07-28T21:49:24.409Z,96474.72
2022-07-28T21:51:53.964Z,96471.44
2022-07-28T21:54:22.042Z,96472.41
2022-07-28T21:56:50.184Z,96474.88
2022-07-28T21:59:18.230Z,96474.75
2022-07-28T22:01:46.339Z,96471.38
2022-07-28T22:04:14.764Z,96468.16
2022-07-28T22:06:44.044Z,96464.47
2022-07-28T22:09:16.352Z,96466.44
2022-07-28T22:11:45.357Z,96469.34
2022-07-28T22:14:13.981Z,96482.38
2022-07-28T22:16:42.296Z,96486.16
2022-07-28T22:19:11.881Z,96495.91
2022-07-28T22:21:39.988Z,96498.06
2022-07-28T22:24:09.126Z,96493.88
2022-07-28T22:26:38.486Z,96496.56
2022-07-28T22:29:06.592Z,96497.34
2022-07-28T22:31:34.779Z,96500.13
2022-07-28T22:34:03.012Z,96504.88
2022-07-28T22:36:31.173Z,96494.03
2022-07-28T22:38:59.445Z,96496.22
2022-07-28T22:41:27.535Z,96496.28
2022-07-28T22:43:57.162Z,96495.50
2022-07-28T22:46:25.235Z,96487.78
2022-07-28T22:48:53.330Z,96491.00
2022-07-28T22:51:21.566Z,96484.06
2022-07-28T22:53:49.632Z,96487.25
2022-07-28T22:56:18.102Z,96483.28
2022-07-28T22:58:46.193Z,96480.31
2022-07-28T23:01:15.710Z,96476.38
2022-07-28T23:03:46.194Z,96475.34
2022-07-28T23:06:14.569Z,96471.16
2022-07-28T23:08:42.787Z,96466.28
2022-07-28T23:11:10.885Z,96465.28
2022-07-28T23:13:39.030Z,96472.25
2022-07-28T23:16:09.107Z,96472.56
2022-07-28T23:18:40.302Z,96469.63
2022-07-28T23:21:08.842Z,96473.41
2022-07-28T23:23:37.071Z,96468.41
2022-07-28T23:26:05.994Z,96457.09
2022-07-28T23:28:36.026Z,96466.09
2022-07-28T23:31:04.251Z,96461.50
2022-07-28T23:33:54.999Z,96468.03
2022-07-28T23:36:27.607Z,96470.00
2022-07-28T23:38:57.541Z,96466.56
2022-07-28T23:41:26.732Z,96458.31
2022-07-28T23:43:54.915Z,96458.59
2022-07-28T23:46:24.293Z,96458.34
2022-07-28T23:48:52.567Z,96453.22
2022-07-28T23:51:22.543Z,96470.50
2022-07-28T23:54:10.588Z,96469.19
2022-07-28T23:56:43.064Z,96457.22
2022-07-28T23:59:13.967Z,96464.75
